This is the latest recevied weather packets stored in our database for station/object KR4CWL-13. If no packets are shown the sender has not sent any weather packets the latest 1 day(s).
| Time | Temp. | Humidity | Pressure | Rain* | Wind** | Luminosity | Snow |
|---|---|---|---|---|---|---|---|
| 1778105172 | 18.33° C | 99% | 1006.1 hPa | 0 mm | - | - | - |
| 1778102772 | 18.33° C | 99% | 1006.1 hPa | 0 mm | - | - | - |
| 1778102172 | 18.33° C | 99% | 1006.1 hPa | 0 mm | - | - | - |
| 1778101572 | 18.33° C | 99% | 1006.1 hPa | 0 mm | - | - | - |
| 1778100972 | 18.33° C | 99% | 1006.1 hPa | 0 mm | - | - | - |
| 1778100372 | 18.33° C | 99% | 1006.1 hPa | 0 mm | - | - | - |
| 1778099772 | 18.33° C | 99% | 1006.1 hPa | 0 mm | - | - | - |
| 1778099172 | 18.33° C | 99% | 1006.1 hPa | 0 mm | - | - | - |
| 1778098572 | 18.33° C | 99% | 1006.1 hPa | 0 mm | - | - | - |
| 1778097972 | 18.33° C | 99% | 1006.1 hPa | 0 mm | - | - | - |
| 1778097372 | 18.33° C | 99% | 1006.1 hPa | 0 mm | - | - | - |
| 1778096772 | 18.33° C | 99% | 1006.1 hPa | 0 mm | - | - | - |
| 1778086571 | 22.22° C | 75% | 1007.8 hPa | 0 mm | - | - | - |
| 1778085371 | 21.67° C | 75% | 1007.8 hPa | 0 mm | - | - | - |
| 1778084171 | 21.11° C | 76% | 1007.4 hPa | 0 mm | - | - | - |
| 1778083571 | 20.56° C | 77% | 1007.4 hPa | 0 mm | - | - | - |
| 1778082971 | 20.56° C | 77% | 1007.4 hPa | 0 mm | - | - | - |
| 1778082371 | 20° C | 78% | 1007.4 hPa | 0 mm | - | - | - |
| 1778081771 | 20° C | 79% | 1007.8 hPa | 0 mm | - | - | - |
| 1778081171 | 20° C | 78% | 1007.8 hPa | 0 mm | - | - | - |
| 1778080571 | 20° C | 77% | 1007.4 hPa | 0 mm | - | - | - |
| 1778079971 | 20.56° C | 76% | 1007.8 hPa | 0 mm | - | - | - |
| 1778070949 | 17.22° C | 85% | 1007.8 hPa | 0 mm | - | - | - |
| 1778067940 | 16.11° C | 87% | 1007.4 hPa | 0 mm | - | - | - |
| 1778067340 | 16.11° C | 88% | 1007.1 hPa | 0 mm | - | - | - |
* Rain since midnight (hover to see other rain measurements)
** Current wind speed in m/s (hover to see current wind gust speed)